Saint Thomas, VI (00803)

5:06 PM AST on August 20, 2017 (GMT -0400)
NorthSide | | Change Station
Active Advisory: Areal Flood Advisory Active Notice: Areal Flood Advisory

Elev 643 ft 18.36 °N, 64.94 °W | Updated 15 seconds ago

Light Rain
Light Rain
76.6 °F
Feels Like 77 °F
N
4.0
Wind Variable Wind from SSE
Gusts 10.0 mph

Today
High -- | Low -- °F
--% Chance of Precip.
Yesterday
High -- | Low -- °F
Precip. -- in
Pressure 29.96 in
Visibility 10.0 miles
Clouds Mostly Cloudy 11000 ft
Heat Index 77 °F
Dew Point 74 °F
Humidity 92%
Rainfall 0.42 in
Snow Depth Not available.
6:02 AM 6:42 PM
Waning Crescent, 1% visible
METAR TIST 202053Z AUTO 09008KT 10SM -RA BKN110 26/24 A2996 RMK AO2 SLP145 P0002 60076 T02610239 55000 $
Pressure 29.96 in
Visibility 10.0 miles
Clouds Mostly Cloudy 11000 ft
Heat Index 77 °F
Dew Point 74 °F
Humidity 92%
Rainfall 0.42 in
Snow Depth Not available.
6:02 AM 6:42 PM
Waning Crescent, 1% visible
METAR TIST 202053Z AUTO 09008KT 10SM -RA BKN110 26/24 A2996 RMK AO2 SLP145 P0002 60076 T02610239 55000 $

Get Your Daily Forecast Email!

Thanks for signing up!

Be on the lookout for a verification email in your inbox.

You'll start receiving severe weather alerts in your inbox..

×

10-Day Weather Forecast

Almanac

Astronomy

Aug. 20, 2017 Rise Set
Actual Time
Civil Twilight
Nautical Twilight
Astronomical Twilight
Moon
Length of Visible Light
Length of Day
Tomorrow will be .
, % of the Moon is Illuminated

Today's Extremes

State Highs State Lows

Community

WunderPhotos

Category 6

Welcome to Category 6. This is the collective home for Weather Underground's featured writeups by Dr. Jeff Masters (right), Bob Henson (left), Chris Burt, and other regular contributors.

Nearby

Air Quality

  Air Quality AQ Index Pollutant
Not available.

Snow Depth

Station Depth Elevation

Earthquake Activity

City Distance Mag. Time & Date
Minimum magnitude displayed is 2.5.

Coastal Water Temperatures

Place Temperature

Stations

Nearby Weather Stations

Station Location Temp. Windchill Dew Point Humidity Wind Precip. Elev Updated Type
                   

Watches & Warnings

Areal Flood Advisory
Issued: 3:15 PM AST Aug. 20, 2017 – National Weather Service

The National Weather Service in San Juan has issued a

* flood advisory for...
Saint John in Virgin Islands...
Saint Thomas in Virgin Islands...

* until 515 PM AST

* at 313 PM AST, Doppler radar indicated heavy rain due to
thunderstorms across Saint John and Saint Thomas in the U.S.
Virgin Islands. This will cause minor flooding in the advisory
area.

* Some locations that will experience flooding include...
St John, Charlotte Amalie west, Charlotte Amalie East, Charlotte
amalie, anna's retreat and Cruz Bay.

Lat... Lon 1837 6492 1833 6485 1833 6484 1837 6475
      1834 6466 1835 6471 1831 6471 1830 6470
      1832 6487 1828 6489 1834 6493 1830 6500
      1834 6498 1841 6506 1836 6493 1841 6491


Figueroa